ENBN/BNN METAR and TAF weather

Enter ICAO airport designator
Station Type Date Time Source
ENBN METAR 2020/09/22 19:50 UTC NOAA

ENBN 221950Z 07010KT 050V120 9999 -RA BKN048 08/04 Q0996


Station Type Date Time Source
ENBN Decoded METAR 2020/09/22 19:50 UTC NOAA

Bronnoysund / Bronnoy, Norway (ENBN) 65-28N 012-13E 9M
Sep 22, 2020 - 03:50 PM EDT / 2020.09.22 1950 UTC
Wind: from the ENE (070 degrees) at 12 MPH (10 KT) (direction variable):0
Visibility: greater than 7 mile(s):0
Sky conditions: mostly cloudy
Weather: light rain
Temperature: 46 F (8 C)
Dew Point: 39 F (4 C)
Relative Humidity: 75%
Pressure (altimeter): 29.41 in. Hg (0996 hPa)
ob: ENBN 221950Z 07010KT 050V120 9999 -RA BKN048 08/04 Q0996
cycle: 20

Station Type Date Time Source
ENBN TAF 2011/03/27 18:12 UTC NOAA

TAF TAF ENBN 261700Z 2618/2718 CNL

Example: see airport list